sensor_id;sensor_type;location;lat;lon;timestamp;pressure;altitude;pressure_sealevel;temperature;humidity
72721;BME280;60835;50.974;10.322;2023-07-22T00:00:39;97574.19;;;14.30;100.00
72721;BME280;60835;50.974;10.322;2023-07-22T00:03:06;97580.41;;;14.37;100.00
72721;BME280;60835;50.974;10.322;2023-07-22T00:05:33;97582.44;;;14.35;100.00
72721;BME280;60835;50.974;10.322;2023-07-22T00:08:00;97583.22;;;14.29;100.00
72721;BME280;60835;50.974;10.322;2023-07-22T00:10:26;97579.84;;;14.14;100.00
72721;BME280;60835;50.974;10.322;2023-07-22T00:12:53;97601.50;;;14.11;100.00
72721;BME280;60835;50.974;10.322;2023-07-22T00:15:20;97594.97;;;14.07;100.00
72721;BME280;60835;50.974;10.322;2023-07-22T00:17:49;97594.97;;;14.07;100.00
72721;BME280;60835;50.974;10.322;2023-07-22T00:20:17;97609.75;;;14.16;100.00
72721;BME280;60835;50.974;10.322;2023-07-22T00:22:44;97610.19;;;14.26;100.00
72721;BME280;60835;50.974;10.322;2023-07-22T00:25:11;97626.25;;;14.39;100.00
72721;BME280;60835;50.974;10.322;2023-07-22T00:27:39;97628.72;;;14.41;100.00
72721;BME280;60835;50.974;10.322;2023-07-22T00:30:07;97642.22;;;14.39;100.00
72721;BME280;60835;50.974;10.322;2023-07-22T00:32:34;97646.50;;;14.34;100.00
72721;BME280;60835;50.974;10.322;2023-07-22T00:35:05;97650.72;;;14.28;100.00
72721;BME280;60835;50.974;10.322;2023-07-22T00:37:32;97639.63;;;14.18;100.00
72721;BME280;60835;50.974;10.322;2023-07-22T00:40:01;97640.84;;;14.16;100.00
72721;BME280;60835;50.974;10.322;2023-07-22T00:42:30;97634.31;;;14.25;100.00
72721;BME280;60835;50.974;10.322;2023-07-22T00:44:57;97633.53;;;14.24;100.00
72721;BME280;60835;50.974;10.322;2023-07-22T00:47:23;97649.50;;;14.24;100.00
72721;BME280;60835;50.974;10.322;2023-07-22T00:49:51;97651.19;;;14.04;100.00
72721;BME280;60835;50.974;10.322;2023-07-22T00:52:18;97651.81;;;14.06;100.00
72721;BME280;60835;50.974;10.322;2023-07-22T00:54:45;97656.19;;;14.14;100.00
72721;BME280;60835;50.974;10.322;2023-07-22T00:57:12;97657.53;;;14.03;100.00
72721;BME280;60835;50.974;10.322;2023-07-22T00:59:39;97647.16;;;14.08;100.00
72721;BME280;60835;50.974;10.322;2023-07-22T01:02:07;97664.31;;;14.06;100.00
72721;BME280;60835;50.974;10.322;2023-07-22T01:04:34;97657.56;;;14.10;100.00
72721;BME280;60835;50.974;10.322;2023-07-22T01:07:03;97664.78;;;14.16;100.00
72721;BME280;60835;50.974;10.322;2023-07-22T01:09:37;97655.19;;;14.21;100.00
72721;BME280;60835;50.974;10.322;2023-07-22T01:12:05;97670.78;;;14.24;100.00
72721;BME280;60835;50.974;10.322;2023-07-22T01:14:34;97670.34;;;14.27;100.00
72721;BME280;60835;50.974;10.322;2023-07-22T01:17:05;97665.03;;;14.27;100.00
72721;BME280;60835;50.974;10.322;2023-07-22T01:19:33;97669.13;;;14.23;100.00
72721;BME280;60835;50.974;10.322;2023-07-22T01:22:05;97675.38;;;14.09;100.00
72721;BME280;60835;50.974;10.322;2023-07-22T01:24:35;97677.75;;;13.97;100.00
72721;BME280;60835;50.974;10.322;2023-07-22T01:27:02;97671.00;;;13.95;100.00
72721;BME280;60835;50.974;10.322;2023-07-22T01:29:30;97676.31;;;13.95;100.00
72721;BME280;60835;50.974;10.322;2023-07-22T01:31:56;97675.88;;;13.91;100.00
72721;BME280;60835;50.974;10.322;2023-07-22T01:34:23;97676.03;;;13.90;100.00
72721;BME280;60835;50.974;10.322;2023-07-22T01:36:51;97659.09;;;13.91;100.00
72721;BME280;60835;50.974;10.322;2023-07-22T01:39:19;97656.53;;;13.76;100.00
72721;BME280;60835;50.974;10.322;2023-07-22T01:41:47;97656.09;;;13.73;100.00
72721;BME280;60835;50.974;10.322;2023-07-22T01:44:14;97639.13;;;13.74;100.00
72721;BME280;60835;50.974;10.322;2023-07-22T01:46:41;97642.41;;;13.76;100.00
72721;BME280;60835;50.974;10.322;2023-07-22T01:49:11;97637.88;;;13.70;100.00
72721;BME280;60835;50.974;10.322;2023-07-22T01:51:41;97640.91;;;13.67;100.00
72721;BME280;60835;50.974;10.322;2023-07-22T01:54:07;97647.88;;;13.68;100.00
72721;BME280;60835;50.974;10.322;2023-07-22T01:56:36;97640.41;;;13.57;100.00
72721;BME280;60835;50.974;10.322;2023-07-22T01:59:02;97652.19;;;13.48;100.00
72721;BME280;60835;50.974;10.322;2023-07-22T02:01:30;97648.53;;;13.49;100.00
72721;BME280;60835;50.974;10.322;2023-07-22T02:03:57;97632.78;;;13.47;100.00
72721;BME280;60835;50.974;10.322;2023-07-22T02:06:24;97645.25;;;13.47;100.00
72721;BME280;60835;50.974;10.322;2023-07-22T02:08:51;97645.28;;;13.53;100.00
72721;BME280;60835;50.974;10.322;2023-07-22T02:11:18;97659.59;;;13.52;100.00
72721;BME280;60835;50.974;10.322;2023-07-22T02:13:45;97657.91;;;13.45;100.00
72721;BME280;60835;50.974;10.322;2023-07-22T02:16:11;97670.16;;;13.46;100.00
72721;BME280;60835;50.974;10.322;2023-07-22T02:18:39;97657.06;;;13.44;100.00
72721;BME280;60835;50.974;10.322;2023-07-22T02:21:05;97669.66;;;13.35;100.00
72721;BME280;60835;50.974;10.322;2023-07-22T02:23:33;97670.03;;;13.32;100.00
72721;BME280;60835;50.974;10.322;2023-07-22T02:26:01;97666.19;;;13.35;100.00
72721;BME280;60835;50.974;10.322;2023-07-22T02:28:27;97668.91;;;13.20;100.00
72721;BME280;60835;50.974;10.322;2023-07-22T02:30:54;97663.78;;;13.19;100.00
72721;BME280;60835;50.974;10.322;2023-07-22T02:33:21;97665.44;;;13.05;100.00
72721;BME280;60835;50.974;10.322;2023-07-22T02:35:48;97652.94;;;12.99;100.00
72721;BME280;60835;50.974;10.322;2023-07-22T02:38:15;97636.22;;;13.05;100.00
72721;BME280;60835;50.974;10.322;2023-07-22T02:40:42;97626.72;;;13.11;100.00
72721;BME280;60835;50.974;10.322;2023-07-22T02:43:09;97608.66;;;13.06;100.00
72721;BME280;60835;50.974;10.322;2023-07-22T02:45:36;97625.25;;;13.08;100.00
72721;BME280;60835;50.974;10.322;2023-07-22T02:48:04;97624.47;;;13.08;100.00
72721;BME280;60835;50.974;10.322;2023-07-22T02:50:31;97622.06;;;13.13;100.00
72721;BME280;60835;50.974;10.322;2023-07-22T02:52:58;97637.06;;;13.06;100.00
72721;BME280;60835;50.974;10.322;2023-07-22T02:55:25;97630.41;;;12.95;100.00
72721;BME280;60835;50.974;10.322;2023-07-22T02:57:51;97640.78;;;12.90;100.00
72721;BME280;60835;50.974;10.322;2023-07-22T03:00:20;97631.09;;;12.82;100.00
72721;BME280;60835;50.974;10.322;2023-07-22T03:02:54;97624.06;;;12.75;100.00
72721;BME280;60835;50.974;10.322;2023-07-22T03:05:22;97615.13;;;12.76;100.00
72721;BME280;60835;50.974;10.322;2023-07-22T03:07:49;97603.59;;;12.69;100.00
72721;BME280;60835;50.974;10.322;2023-07-22T03:10:16;97588.13;;;12.72;100.00
72721;BME280;60835;50.974;10.322;2023-07-22T03:12:43;97594.25;;;12.73;100.00
72721;BME280;60835;50.974;10.322;2023-07-22T03:15:10;97597.84;;;12.65;100.00
72721;BME280;60835;50.974;10.322;2023-07-22T03:17:39;97596.50;;;12.55;100.00
72721;BME280;60835;50.974;10.322;2023-07-22T03:20:10;97585.22;;;12.53;100.00
72721;BME280;60835;50.974;10.322;2023-07-22T03:22:41;97533.47;;;12.57;100.00
72721;BME280;60835;50.974;10.322;2023-07-22T03:25:12;97545.53;;;12.59;100.00
72721;BME280;60835;50.974;10.322;2023-07-22T03:27:39;97543.44;;;12.55;100.00
72721;BME280;60835;50.974;10.322;2023-07-22T03:30:06;97553.59;;;12.51;100.00
72721;BME280;60835;50.974;10.322;2023-07-22T03:32:37;97563.69;;;12.41;100.00
72721;BME280;60835;50.974;10.322;2023-07-22T03:35:05;97544.41;;;12.33;100.00
72721;BME280;60835;50.974;10.322;2023-07-22T03:37:31;97532.91;;;12.26;100.00
72721;BME280;60835;50.974;10.322;2023-07-22T03:39:58;97533.28;;;12.23;100.00
72721;BME280;60835;50.974;10.322;2023-07-22T03:42:25;97529.88;;;12.29;100.00
72721;BME280;60835;50.974;10.322;2023-07-22T03:44:51;97527.63;;;12.26;100.00
72721;BME280;60835;50.974;10.322;2023-07-22T03:47:19;97523.03;;;12.19;100.00
72721;BME280;60835;50.974;10.322;2023-07-22T03:49:46;97526.47;;;12.35;100.00
72721;BME280;60835;50.974;10.322;2023-07-22T03:52:12;97522.97;;;12.49;100.00
72721;BME280;60835;50.974;10.322;2023-07-22T03:54:40;97530.66;;;12.44;100.00
72721;BME280;60835;50.974;10.322;2023-07-22T03:57:07;97537.59;;;12.45;100.00
72721;BME280;60835;50.974;10.322;2023-07-22T03:59:34;97552.72;;;12.44;100.00
72721;BME280;60835;50.974;10.322;2023-07-22T04:02:01;97552.03;;;12.57;100.00
72721;BME280;60835;50.974;10.322;2023-07-22T04:04:29;97575.28;;;12.55;100.00
72721;BME280;60835;50.974;10.322;2023-07-22T04:06:55;97583.59;;;12.52;100.00
72721;BME280;60835;50.974;10.322;2023-07-22T04:09:22;97582.38;;;12.33;100.00
72721;BME280;60835;50.974;10.322;2023-07-22T04:11:49;97590.13;;;12.35;100.00
72721;BME280;60835;50.974;10.322;2023-07-22T04:14:15;97567.91;;;12.36;100.00
72721;BME280;60835;50.974;10.322;2023-07-22T04:16:42;97568.69;;;12.51;100.00
72721;BME280;60835;50.974;10.322;2023-07-22T04:19:09;97572.47;;;12.63;100.00
72721;BME280;60835;50.974;10.322;2023-07-22T04:21:35;97586.94;;;12.60;100.00
72721;BME280;60835;50.974;10.322;2023-07-22T04:24:02;97594.53;;;12.63;100.00
72721;BME280;60835;50.974;10.322;2023-07-22T04:26:30;97575.94;;;12.78;100.00
72721;BME280;60835;50.974;10.322;2023-07-22T04:28:57;97587.25;;;12.87;100.00
72721;BME280;60835;50.974;10.322;2023-07-22T04:31:24;97609.41;;;13.00;100.00
72721;BME280;60835;50.974;10.322;2023-07-22T04:33:50;97617.00;;;13.03;100.00
72721;BME280;60835;50.974;10.322;2023-07-22T04:36:17;97632.13;;;13.03;100.00
72721;BME280;60835;50.974;10.322;2023-07-22T04:38:44;97632.44;;;13.08;100.00
72721;BME280;60835;50.974;10.322;2023-07-22T04:41:11;97658.66;;;13.03;100.00
72721;BME280;60835;50.974;10.322;2023-07-22T04:43:38;97649.03;;;13.16;100.00
72721;BME280;60835;50.974;10.322;2023-07-22T04:46:06;97650.75;;;13.24;100.00
72721;BME280;60835;50.974;10.322;2023-07-22T04:48:34;97671.56;;;13.20;100.00
72721;BME280;60835;50.974;10.322;2023-07-22T04:51:00;97667.50;;;13.24;100.00
72721;BME280;60835;50.974;10.322;2023-07-22T04:53:27;97670.53;;;13.21;100.00
72721;BME280;60835;50.974;10.322;2023-07-22T04:55:54;97662.69;;;13.13;100.00
72721;BME280;60835;50.974;10.322;2023-07-22T04:58:21;97666.38;;;13.12;100.00
72721;BME280;60835;50.974;10.322;2023-07-22T05:00:48;97649.13;;;13.23;100.00
72721;BME280;60835;50.974;10.322;2023-07-22T05:03:15;97647.53;;;13.28;100.00
72721;BME280;60835;50.974;10.322;2023-07-22T05:05:42;97661.69;;;13.35;100.00
72721;BME280;60835;50.974;10.322;2023-07-22T05:08:09;97663.97;;;13.38;100.00
72721;BME280;60835;50.974;10.322;2023-07-22T05:10:39;97675.44;;;13.39;100.00
72721;BME280;60835;50.974;10.322;2023-07-22T05:13:06;97672.88;;;13.52;100.00
72721;BME280;60835;50.974;10.322;2023-07-22T05:15:32;97682.22;;;13.69;100.00
72721;BME280;60835;50.974;10.322;2023-07-22T05:17:59;97695.59;;;13.76;100.00
72721;BME280;60835;50.974;10.322;2023-07-22T05:20:26;97707.94;;;13.90;100.00
72721;BME280;60835;50.974;10.322;2023-07-22T05:22:53;97727.88;;;14.00;100.00
72721;BME280;60835;50.974;10.322;2023-07-22T05:25:19;97752.88;;;14.06;100.00
72721;BME280;60835;50.974;10.322;2023-07-22T05:27:46;97768.44;;;14.09;100.00
72721;BME280;60835;50.974;10.322;2023-07-22T05:30:13;97794.78;;;14.25;100.00
72721;BME280;60835;50.974;10.322;2023-07-22T05:33:00;97823.19;;;14.39;100.00
72721;BME280;60835;50.974;10.322;2023-07-22T05:35:26;97847.63;;;14.49;100.00
72721;BME280;60835;50.974;10.322;2023-07-22T05:37:53;97860.44;;;14.67;100.00
72721;BME280;60835;50.974;10.322;2023-07-22T05:40:20;97875.44;;;14.75;100.00
72721;BME280;60835;50.974;10.322;2023-07-22T05:42:47;97899.50;;;14.60;100.00
72721;BME280;60835;50.974;10.322;2023-07-22T05:45:13;97883.59;;;14.67;100.00
72721;BME280;60835;50.974;10.322;2023-07-22T05:47:42;97905.75;;;14.74;100.00
72721;BME280;60835;50.974;10.322;2023-07-22T05:50:09;97901.69;;;14.78;100.00
72721;BME280;60835;50.974;10.322;2023-07-22T05:52:36;97912.94;;;15.01;100.00
72721;BME280;60835;50.974;10.322;2023-07-22T05:55:03;97933.88;;;15.10;100.00
72721;BME280;60835;50.974;10.322;2023-07-22T05:57:31;97944.69;;;15.64;100.00
72721;BME280;60835;50.974;10.322;2023-07-22T05:59:57;98007.19;;;16.50;100.00
72721;BME280;60835;50.974;10.322;2023-07-22T06:02:34;98089.50;;;16.87;100.00
72721;BME280;60835;50.974;10.322;2023-07-22T06:05:01;98150.75;;;16.95;100.00
72721;BME280;60835;50.974;10.322;2023-07-22T06:07:28;98138.88;;;17.04;100.00
72721;BME280;60835;50.974;10.322;2023-07-22T06:09:55;98140.88;;;16.89;100.00
72721;BME280;60835;50.974;10.322;2023-07-22T06:12:21;98153.94;;;17.51;100.00
72721;BME280;60835;50.974;10.322;2023-07-22T06:14:48;98194.03;;;17.32;100.00
72721;BME280;60835;50.974;10.322;2023-07-22T06:17:15;98162.22;;;17.89;100.00
72721;BME280;60835;50.974;10.322;2023-07-22T06:19:42;98210.38;;;17.02;100.00
72721;BME280;60835;50.974;10.322;2023-07-22T06:22:08;98150.88;;;18.13;100.00
72721;BME280;60835;50.974;10.322;2023-07-22T06:24:35;98195.34;;;17.88;100.00
72721;BME280;60835;50.974;10.322;2023-07-22T06:27:02;98210.31;;;18.61;100.00
72721;BME280;60835;50.974;10.322;2023-07-22T06:29:29;98252.53;;;18.72;100.00
72721;BME280;60835;50.974;10.322;2023-07-22T06:31:56;98271.66;;;17.58;100.00
72721;BME280;60835;50.974;10.322;2023-07-22T06:34:23;98253.41;;;18.07;100.00
72721;BME280;60835;50.974;10.322;2023-07-22T06:36:51;98257.75;;;18.35;100.00
72721;BME280;60835;50.974;10.322;2023-07-22T06:39:17;98247.38;;;19.28;100.00
72721;BME280;60835;50.974;10.322;2023-07-22T06:41:45;98314.09;;;19.63;100.00
72721;BME280;60835;50.974;10.322;2023-07-22T06:44:12;98353.31;;;19.64;100.00
72721;BME280;60835;50.974;10.322;2023-07-22T06:46:38;98338.69;;;18.76;100.00
72721;BME280;60835;50.974;10.322;2023-07-22T06:49:05;98341.22;;;19.86;100.00
72721;BME280;60835;50.974;10.322;2023-07-22T06:51:32;98378.69;;;20.43;100.00
72721;BME280;60835;50.974;10.322;2023-07-22T06:53:59;98428.47;;;19.64;100.00
72721;BME280;60835;50.974;10.322;2023-07-22T06:56:25;98383.38;;;19.79;100.00
72721;BME280;60835;50.974;10.322;2023-07-22T06:58:52;98384.69;;;20.39;100.00
72721;BME280;60835;50.974;10.322;2023-07-22T07:01:19;98440.88;;;22.18;100.00
72721;BME280;60835;50.974;10.322;2023-07-22T07:03:46;98633.75;;;22.08;100.00
72721;BME280;60835;50.974;10.322;2023-07-22T07:06:13;98748.28;;;20.52;100.00
72721;BME280;60835;50.974;10.322;2023-07-22T07:08:40;98791.88;;;20.15;100.00
72721;BME280;60835;50.974;10.322;2023-07-22T07:11:07;98854.53;;;22.03;100.00
72721;BME280;60835;50.974;10.322;2023-07-22T07:13:34;98877.34;;;21.49;100.00
72721;BME280;60835;50.974;10.322;2023-07-22T07:16:23;98894.63;;;21.29;100.00
72721;BME280;60835;50.974;10.322;2023-07-22T07:18:52;98919.97;;;21.65;100.00
72721;BME280;60835;50.974;10.322;2023-07-22T07:21:19;98920.06;;;21.39;100.00
72721;BME280;60835;50.974;10.322;2023-07-22T07:23:46;98928.25;;;22.46;100.00
72721;BME280;60835;50.974;10.322;2023-07-22T07:26:14;98933.16;;;21.80;100.00
72721;BME280;60835;50.974;10.322;2023-07-22T07:28:41;98934.41;;;22.53;100.00
72721;BME280;60835;50.974;10.322;2023-07-22T07:31:08;98946.56;;;20.90;100.00
72721;BME280;60835;50.974;10.322;2023-07-22T07:33:35;98916.16;;;21.15;100.00
72721;BME280;60835;50.974;10.322;2023-07-22T07:36:02;98933.25;;;21.60;100.00
72721;BME280;60835;50.974;10.322;2023-07-22T07:38:29;98947.63;;;22.61;100.00
72721;BME280;60835;50.974;10.322;2023-07-22T07:41:02;98951.59;;;22.27;100.00
72721;BME280;60835;50.974;10.322;2023-07-22T07:43:29;98967.00;;;23.08;100.00
72721;BME280;60835;50.974;10.322;2023-07-22T07:46:35;98978.78;;;23.38;100.00
72721;BME280;60835;50.974;10.322;2023-07-22T07:49:02;98980.47;;;22.14;100.00
72721;BME280;60835;50.974;10.322;2023-07-22T07:51:30;98974.47;;;22.12;100.00
72721;BME280;60835;50.974;10.322;2023-07-22T07:53:58;98983.59;;;23.11;100.00
72721;BME280;60835;50.974;10.322;2023-07-22T07:56:26;98985.47;;;24.26;100.00
72721;BME280;60835;50.974;10.322;2023-07-22T07:58:54;98990.88;;;24.56;100.00
72721;BME280;60835;50.974;10.322;2023-07-22T08:01:21;98998.13;;;21.13;100.00
72721;BME280;60835;50.974;10.322;2023-07-22T08:03:48;98974.63;;;21.66;100.00
72721;BME280;60835;50.974;10.322;2023-07-22T08:06:15;98979.69;;;20.97;100.00
72721;BME280;60835;50.974;10.322;2023-07-22T08:08:47;98982.94;;;23.77;100.00
72721;BME280;60835;50.974;10.322;2023-07-22T08:11:14;98986.00;;;23.44;100.00
72721;BME280;60835;50.974;10.322;2023-07-22T08:13:42;98985.72;;;22.02;100.00
72721;BME280;60835;50.974;10.322;2023-07-22T08:16:12;98993.09;;;22.20;100.00
72721;BME280;60835;50.974;10.322;2023-07-22T08:18:39;98984.88;;;22.77;100.00
72721;BME280;60835;50.974;10.322;2023-07-22T08:21:06;98991.06;;;23.09;100.00
72721;BME280;60835;50.974;10.322;2023-07-22T08:23:35;98994.75;;;22.21;100.00
72721;BME280;60835;50.974;10.322;2023-07-22T08:26:03;98991.59;;;22.93;100.00
72721;BME280;60835;50.974;10.322;2023-07-22T08:28:33;98996.06;;;23.91;100.00
72721;BME280;60835;50.974;10.322;2023-07-22T08:31:00;98995.88;;;24.41;100.00
72721;BME280;60835;50.974;10.322;2023-07-22T08:33:28;98991.56;;;24.03;100.00
72721;BME280;60835;50.974;10.322;2023-07-22T08:36:07;98990.38;;;23.63;100.00
72721;BME280;60835;50.974;10.322;2023-07-22T08:38:33;99003.13;;;23.56;100.00
72721;BME280;60835;50.974;10.322;2023-07-22T08:41:00;98996.19;;;22.92;100.00
72721;BME280;60835;50.974;10.322;2023-07-22T08:43:28;99010.41;;;21.93;100.00
72721;BME280;60835;50.974;10.322;2023-07-22T08:45:59;99001.13;;;21.89;100.00
72721;BME280;60835;50.974;10.322;2023-07-22T08:48:26;98986.22;;;21.73;100.00
72721;BME280;60835;50.974;10.322;2023-07-22T08:51:02;98998.69;;;23.19;100.00
72721;BME280;60835;50.974;10.322;2023-07-22T08:53:30;98997.84;;;22.93;100.00
72721;BME280;60835;50.974;10.322;2023-07-22T08:56:00;98991.53;;;23.49;100.00
72721;BME280;60835;50.974;10.322;2023-07-22T08:58:29;98999.75;;;25.04;100.00
72721;BME280;60835;50.974;10.322;2023-07-22T09:00:56;98985.09;;;24.82;100.00
72721;BME280;60835;50.974;10.322;2023-07-22T09:03:24;98982.78;;;25.67;100.00
72721;BME280;60835;50.974;10.322;2023-07-22T09:05:51;98985.59;;;22.66;100.00
72721;BME280;60835;50.974;10.322;2023-07-22T09:08:19;98987.81;;;23.68;100.00
72721;BME280;60835;50.974;10.322;2023-07-22T09:10:46;98984.28;;;23.25;100.00
72721;BME280;60835;50.974;10.322;2023-07-22T09:13:13;98982.22;;;24.77;100.00
72721;BME280;60835;50.974;10.322;2023-07-22T09:15:41;98985.66;;;24.43;100.00
72721;BME280;60835;50.974;10.322;2023-07-22T09:18:08;98983.44;;;24.21;100.00
72721;BME280;60835;50.974;10.322;2023-07-22T09:20:35;98980.78;;;24.63;100.00
72721;BME280;60835;50.974;10.322;2023-07-22T09:23:02;98977.47;;;24.19;100.00
72721;BME280;60835;50.974;10.322;2023-07-22T09:25:41;98984.34;;;22.93;100.00
72721;BME280;60835;50.974;10.322;2023-07-22T09:28:08;98972.53;;;21.74;100.00
72721;BME280;60835;50.974;10.322;2023-07-22T09:30:38;98984.44;;;22.49;100.00
72721;BME280;60835;50.974;10.322;2023-07-22T09:33:20;98971.31;;;23.33;100.00
72721;BME280;60835;50.974;10.322;2023-07-22T09:35:50;98977.16;;;23.73;100.00
72721;BME280;60835;50.974;10.322;2023-07-22T09:38:24;98979.56;;;23.81;100.00
72721;BME280;60835;50.974;10.322;2023-07-22T09:40:52;98965.66;;;22.36;100.00
72721;BME280;60835;50.974;10.322;2023-07-22T09:43:19;98979.72;;;22.38;100.00
72721;BME280;60835;50.974;10.322;2023-07-22T09:45:48;98978.47;;;22.40;100.00
72721;BME280;60835;50.974;10.322;2023-07-22T09:48:16;98967.50;;;22.73;100.00
72721;BME280;60835;50.974;10.322;2023-07-22T09:50:43;98970.19;;;22.42;100.00
72721;BME280;60835;50.974;10.322;2023-07-22T09:53:14;98972.88;;;22.73;100.00
72721;BME280;60835;50.974;10.322;2023-07-22T09:55:41;98961.19;;;22.17;100.00
72721;BME280;60835;50.974;10.322;2023-07-22T09:58:08;98975.13;;;22.45;100.00
72721;BME280;60835;50.974;10.322;2023-07-22T10:00:37;98962.84;;;22.56;100.00
72721;BME280;60835;50.974;10.322;2023-07-22T10:03:10;98954.34;;;23.51;100.00
72721;BME280;60835;50.974;10.322;2023-07-22T10:06:00;98943.09;;;23.11;100.00
72721;BME280;60835;50.974;10.322;2023-07-22T10:08:30;98943.00;;;22.99;100.00
72721;BME280;60835;50.974;10.322;2023-07-22T10:10:57;98948.44;;;23.18;100.00
72721;BME280;60835;50.974;10.322;2023-07-22T10:13:26;98952.34;;;22.41;100.00
72721;BME280;60835;50.974;10.322;2023-07-22T10:15:53;98942.69;;;22.58;100.00
72721;BME280;60835;50.974;10.322;2023-07-22T10:18:21;98938.97;;;23.09;100.00
72721;BME280;60835;50.974;10.322;2023-07-22T10:20:48;98947.28;;;23.86;100.00
72721;BME280;60835;50.974;10.322;2023-07-22T10:23:16;98931.94;;;24.99;100.00
72721;BME280;60835;50.974;10.322;2023-07-22T10:25:43;98934.41;;;25.35;100.00
72721;BME280;60835;50.974;10.322;2023-07-22T10:28:12;98934.63;;;25.34;100.00
72721;BME280;60835;50.974;10.322;2023-07-22T10:30:40;98916.59;;;26.02;100.00
72721;BME280;60835;50.974;10.322;2023-07-22T10:33:07;98920.00;;;25.98;100.00
72721;BME280;60835;50.974;10.322;2023-07-22T10:35:40;98923.09;;;24.92;100.00
72721;BME280;60835;50.974;10.322;2023-07-22T10:38:09;98908.78;;;25.78;100.00
72721;BME280;60835;50.974;10.322;2023-07-22T10:40:57;98919.47;;;27.57;100.00
72721;BME280;60835;50.974;10.322;2023-07-22T10:45:57;98887.13;;;26.34;100.00
72721;BME280;60835;50.974;10.322;2023-07-22T10:48:34;98898.75;;;26.80;100.00
72721;BME280;60835;50.974;10.322;2023-07-22T10:51:06;98897.19;;;26.84;100.00
72721;BME280;60835;50.974;10.322;2023-07-22T10:53:40;98884.31;;;27.72;100.00
72721;BME280;60835;50.974;10.322;2023-07-22T10:56:20;98888.09;;;28.15;100.00
72721;BME280;60835;50.974;10.322;2023-07-22T11:11:56;98877.31;;;28.25;100.00
72721;BME280;60835;50.974;10.322;2023-07-22T11:14:26;98880.47;;;27.30;100.00
72721;BME280;60835;50.974;10.322;2023-07-22T11:16:53;98874.63;;;26.50;100.00
72721;BME280;60835;50.974;10.322;2023-07-22T11:19:22;98878.16;;;25.66;100.00
72721;BME280;60835;50.974;10.322;2023-07-22T11:21:51;98869.44;;;26.48;100.00
72721;BME280;60835;50.974;10.322;2023-07-22T11:24:19;98879.84;;;27.61;100.00
72721;BME280;60835;50.974;10.322;2023-07-22T11:26:47;98872.75;;;25.66;100.00
72721;BME280;60835;50.974;10.322;2023-07-22T11:29:15;98867.88;;;26.36;100.00
72721;BME280;60835;50.974;10.322;2023-07-22T11:31:47;98848.53;;;26.32;100.00
72721;BME280;60835;50.974;10.322;2023-07-22T11:34:16;98844.53;;;25.38;100.00
72721;BME280;60835;50.974;10.322;2023-07-22T11:36:44;98853.06;;;24.84;100.00
72721;BME280;60835;50.974;10.322;2023-07-22T11:39:12;98844.72;;;24.86;100.00
72721;BME280;60835;50.974;10.322;2023-07-22T11:41:40;98857.47;;;24.02;100.00
72721;BME280;60835;50.974;10.322;2023-07-22T11:44:12;98841.13;;;24.50;100.00
72721;BME280;60835;50.974;10.322;2023-07-22T11:46:59;98853.53;;;24.93;100.00
72721;BME280;60835;50.974;10.322;2023-07-22T11:52:08;98850.53;;;23.47;100.00
72721;BME280;60835;50.974;10.322;2023-07-22T11:54:37;98840.75;;;23.28;100.00
72721;BME280;60835;50.974;10.322;2023-07-22T11:57:21;98831.50;;;24.66;100.00
72721;BME280;60835;50.974;10.322;2023-07-22T11:59:53;98837.50;;;24.03;100.00
72721;BME280;60835;50.974;10.322;2023-07-22T12:02:25;98819.13;;;24.47;100.00
72721;BME280;60835;50.974;10.322;2023-07-22T12:05:03;98838.94;;;23.03;100.00
72721;BME280;60835;50.974;10.322;2023-07-22T12:07:36;98840.44;;;23.72;100.00
72721;BME280;60835;50.974;10.322;2023-07-22T12:10:05;98823.59;;;24.00;100.00
72721;BME280;60835;50.974;10.322;2023-07-22T12:12:50;98820.44;;;24.03;100.00
72721;BME280;60835;50.974;10.322;2023-07-22T12:15:19;98816.69;;;25.15;100.00
72721;BME280;60835;50.974;10.322;2023-07-22T12:17:50;98821.69;;;23.89;100.00
72721;BME280;60835;50.974;10.322;2023-07-22T12:20:18;98814.06;;;23.56;100.00
72721;BME280;60835;50.974;10.322;2023-07-22T12:22:45;98813.63;;;24.53;100.00
72721;BME280;60835;50.974;10.322;2023-07-22T12:25:12;98815.78;;;25.37;100.00
72721;BME280;60835;50.974;10.322;2023-07-22T12:27:39;98822.78;;;23.22;100.00
72721;BME280;60835;50.974;10.322;2023-07-22T12:30:06;98809.41;;;24.04;100.00
72721;BME280;60835;50.974;10.322;2023-07-22T12:32:33;98815.56;;;24.11;100.00
72721;BME280;60835;50.974;10.322;2023-07-22T12:35:00;98810.94;;;24.88;100.00
72721;BME280;60835;50.974;10.322;2023-07-22T12:37:27;98807.59;;;23.57;100.00
72721;BME280;60835;50.974;10.322;2023-07-22T12:39:55;98820.09;;;23.40;100.00
72721;BME280;60835;50.974;10.322;2023-07-22T12:42:22;98805.88;;;23.26;100.00
72721;BME280;60835;50.974;10.322;2023-07-22T12:44:49;98818.28;;;22.97;100.00
72721;BME280;60835;50.974;10.322;2023-07-22T12:47:16;98813.94;;;23.51;100.00
72721;BME280;60835;50.974;10.322;2023-07-22T12:49:42;98808.22;;;23.41;100.00
72721;BME280;60835;50.974;10.322;2023-07-22T12:52:09;98799.81;;;24.08;100.00
72721;BME280;60835;50.974;10.322;2023-07-22T12:54:36;98796.25;;;25.35;100.00
72721;BME280;60835;50.974;10.322;2023-07-22T12:57:03;98791.16;;;24.53;100.00
72721;BME280;60835;50.974;10.322;2023-07-22T12:59:30;98787.59;;;24.17;100.00
72721;BME280;60835;50.974;10.322;2023-07-22T13:01:57;98800.25;;;23.46;100.00
72721;BME280;60835;50.974;10.322;2023-07-22T13:04:24;98808.03;;;23.72;100.00